Time;durP1;ratioP1;P1;durP2;ratioP2;P2;SDS_P1;SDS_P2;PMS_P1;PMS_P2;Temp;Humidity;BMP_temperature;BMP_pressure;BME280_temperature;BME280_humidity;BME280_pressure;Samples;Min_cycle;Max_cycle;Signal;HPM_P1;HPM_P2
2022/04/19 00:00:47;;;;;;;14.85;8.85;;;;;;;10.82;55.73;101290.31;5032161;28;20052;-69
2022/04/19 00:03:14;;;;;;;9.35;7.88;;;;;;;10.80;56.00;101284.28;5034859;28;20049;-71
2022/04/19 00:05:41;;;;;;;12.80;8.43;;;;;;;10.74;56.42;101278.91;5034919;28;20099;-69
2022/04/19 00:08:07;;;;;;;10.55;8.02;;;;;;;10.71;56.62;101277.44;5034970;28;20029;-68
2022/04/19 00:10:34;;;;;;;10.73;7.50;;;;;;;10.68;57.03;101287.88;5017106;28;20050;-69
2022/04/19 00:13:01;;;;;;;13.43;8.98;;;;;;;10.59;57.10;101281.88;5017265;28;20052;-70
2022/04/19 00:15:29;;;;;;;11.43;8.18;;;;;;;10.53;57.03;101274.63;5034612;28;20469;-71
2022/04/19 00:17:55;;;;;;;10.75;7.82;;;;;;;10.53;57.96;101274.63;5034980;28;20469;-70
2022/04/19 00:20:21;;;;;;;10.15;8.25;;;;;;;10.49;57.72;101265.25;5034932;28;20029;-71
2022/04/19 00:22:49;;;;;;;10.13;7.63;;;;;;;10.43;58.39;101267.78;5034613;28;20029;-68
2022/04/19 00:25:15;;;;;;;9.73;7.75;;;;;;;10.42;58.22;101273.41;5034795;28;20025;-68
2022/04/19 00:27:40;;;;;;;11.18;8.30;;;;;;;10.48;58.11;101274.41;5034730;28;20428;-70
2022/04/19 00:30:06;;;;;;;10.02;7.43;;;;;;;10.40;58.70;101270.94;5034196;28;20455;-71
2022/04/19 00:32:31;;;;;;;10.55;7.85;;;;;;;10.43;58.66;101267.78;5034165;28;20424;-71
2022/04/19 00:34:57;;;;;;;12.35;8.07;;;;;;;10.33;59.24;101263.84;5034316;28;20030;-69
2022/04/19 00:37:23;;;;;;;10.73;7.15;;;;;;;10.31;57.80;101261.34;5034496;28;20377;-69
2022/04/19 00:39:49;;;;;;;12.40;7.78;;;;;;;10.27;58.81;101265.53;5034305;28;20037;-70
2022/04/19 00:42:14;;;;;;;14.43;8.20;;;;;;;10.24;58.48;101257.84;5034447;28;20026;-68
2022/04/19 00:44:39;;;;;;;10.93;7.68;;;;;;;10.20;59.06;101264.69;5033471;28;20091;-70
2022/04/19 00:47:09;;;;;;;12.50;8.35;;;;;;;10.16;59.40;101264.31;5034410;28;20041;-69
2022/04/19 00:49:38;;;;;;;9.48;7.63;;;;;;;10.07;59.61;101263.69;5033799;28;20036;-71
2022/04/19 00:52:05;;;;;;;10.40;7.85;;;;;;;10.10;58.74;101274.09;5034257;28;20030;-70
2022/04/19 00:54:30;;;;;;;8.93;7.40;;;;;;;10.09;58.49;101261.59;5016450;28;20067;-72
2022/04/19 00:56:56;;;;;;;9.02;7.80;;;;;;;10.10;58.76;101263.28;5033935;28;20109;-72
2022/04/19 00:59:22;;;;;;;9.93;7.80;;;;;;;10.04;59.20;101258.72;5033550;28;20053;-70
2022/04/19 01:01:47;;;;;;;11.38;8.10;;;;;;;9.98;59.42;101262.25;5031546;28;20109;-69
2022/04/19 01:04:12;;;;;;;10.02;8.25;;;;;;;9.97;59.71;101267.88;5034330;28;20229;-69
2022/04/19 01:06:38;;;;;;;13.00;8.05;;;;;;;10.01;58.59;101264.53;5033755;28;20025;-71
2022/04/19 01:09:03;;;;;;;8.82;7.47;;;;;;;10.07;58.94;101269.09;5034049;28;20049;-69
2022/04/19 01:14:14;;;;;;;10.27;8.00;;;;;;;9.99;59.05;101263.91;5033671;28;20155;-70
2022/04/19 01:16:42;;;;;;;9.80;8.10;;;;;;;9.90;60.24;101254.34;5033490;28;20034;-70
2022/04/19 01:19:16;;;;;;;11.85;8.40;;;;;;;9.89;59.45;101252.72;5033740;28;20167;-69
2022/04/19 01:21:48;;;;;;;10.63;7.95;;;;;;;9.83;59.48;101258.94;5015675;28;20026;-70
2022/04/19 01:24:18;;;;;;;9.15;7.97;;;;;;;9.82;59.51;101249.19;5033681;28;20025;-71
2022/04/19 01:26:45;;;;;;;12.32;8.30;;;;;;;9.80;59.65;101249.41;5033314;28;20037;-70
2022/04/19 01:29:11;;;;;;;11.57;8.52;;;;;;;9.79;60.15;101246.91;5033335;28;20040;-69
2022/04/19 01:31:39;;;;;;;11.57;8.80;;;;;;;9.79;60.24;101242.31;5033406;28;20040;-70
2022/04/19 01:34:04;;;;;;;11.48;8.82;;;;;;;9.76;60.12;101242.75;5015778;28;20105;-70
2022/04/19 01:36:30;;;;;;;11.82;8.80;;;;;;;9.70;60.13;101246.28;5033386;28;20049;-71
2022/04/19 01:38:55;;;;;;;14.00;9.55;;;;;;;9.67;59.43;101252.13;5032937;28;20046;-70
2022/04/19 01:41:21;;;;;;;14.40;10.30;;;;;;;9.68;59.44;101243.78;5015656;28;20043;-71
2022/04/19 01:43:46;;;;;;;16.73;10.95;;;;;;;9.59;59.38;101234.25;5015199;28;20076;-70
2022/04/19 01:46:12;;;;;;;13.35;11.48;;;;;;;9.64;58.89;101242.53;5033266;28;20061;-69
2022/04/19 01:48:37;;;;;;;17.63;11.88;;;;;;;9.65;58.77;101241.50;5032737;28;20523;-69
2022/04/19 01:51:02;;;;;;;16.45;12.38;;;;;;;9.67;57.81;101244.81;5033158;28;20041;-70
2022/04/19 01:53:28;;;;;;;17.85;11.82;;;;;;;9.68;58.11;101240.28;5033083;28;20469;-70
2022/04/19 01:55:53;;;;;;;16.98;12.60;;;;;;;9.69;57.09;101237.34;5032926;28;20025;-69
2022/04/19 01:58:19;;;;;;;16.58;12.57;;;;;;;9.75;57.97;101247.31;5014800;28;20392;-69
2022/04/19 02:00:44;;;;;;;19.33;13.65;;;;;;;9.72;57.55;101234.25;5030533;28;20025;-69
2022/04/19 02:03:09;;;;;;;16.83;12.82;;;;;;;9.76;56.88;101243.56;5032970;28;20061;-72
2022/04/19 02:05:34;;;;;;;15.35;12.18;;;;;;;9.72;57.35;101245.03;5032575;28;20036;-72
2022/04/19 02:08:00;;;;;;;16.77;13.25;;;;;;;9.73;57.82;101238.56;5032495;28;20053;-73
2022/04/19 02:10:25;;;;;;;16.70;13.13;;;;;;;9.69;57.27;101233.81;5015005;28;20057;-70
2022/04/19 02:12:51;;;;;;;15.82;13.38;;;;;;;9.63;57.31;101238.19;5032608;28;20045;-72
2022/04/19 02:15:17;;;;;;;19.00;12.73;;;;;;;9.56;57.30;101231.97;5032794;28;20496;-70
2022/04/19 02:17:49;;;;;;;18.02;12.63;;;;;;;9.49;58.25;101234.66;5032205;28;20382;-69
2022/04/19 02:20:17;;;;;;;20.02;12.77;;;;;;;9.45;58.51;101232.56;5013028;28;20037;-71
2022/04/19 02:22:43;;;;;;;19.35;12.85;;;;;;;9.39;59.66;101239.63;5012295;28;20036;-72
2022/04/19 02:25:11;;;;;;;17.55;12.45;;;;;;;9.39;58.60;101240.47;5012453;28;20030;-71
2022/04/19 02:27:39;;;;;;;18.55;13.00;;;;;;;9.36;58.87;101235.50;5012928;28;20026;-71
2022/04/19 02:30:06;;;;;;;16.98;12.90;;;;;;;9.36;58.73;101224.69;5012991;28;20052;-70
2022/04/19 02:32:32;;;;;;;15.40;12.75;;;;;;;9.33;59.52;101224.25;4995899;28;20041;-72
2022/04/19 02:34:58;;;;;;;17.02;12.75;;;;;;;9.21;58.98;101224.88;5033947;28;20056;-70
2022/04/19 02:37:23;;;;;;;17.58;13.10;;;;;;;9.23;59.12;101230.09;5032458;28;20057;-69
2022/04/19 02:39:49;;;;;;;16.48;13.07;;;;;;;9.18;59.50;101227.19;5032278;28;20521;-69
2022/04/19 02:42:14;;;;;;;14.88;12.70;;;;;;;9.16;60.23;101224.69;5032503;28;20033;-71
2022/04/19 02:44:40;;;;;;;19.00;12.68;;;;;;;9.10;60.25;101219.28;5032237;28;20036;-69
2022/04/19 02:47:05;;;;;;;17.00;12.57;;;;;;;9.13;60.23;101216.16;5014536;28;20033;-69
2022/04/19 02:49:32;;;;;;;18.48;13.25;;;;;;;9.09;59.89;101220.28;5031570;28;20166;-71
2022/04/19 02:51:57;;;;;;;16.48;12.98;;;;;;;9.10;59.26;101219.28;5032093;28;20052;-70
2022/04/19 02:54:23;;;;;;;19.88;13.63;;;;;;;9.05;59.38;101220.72;5032441;28;20461;-69
2022/04/19 02:56:48;;;;;;;19.50;13.65;;;;;;;9.03;58.84;101219.28;5032217;28;20040;-70
2022/04/19 02:59:13;;;;;;;16.48;13.13;;;;;;;8.99;60.54;101213.44;5014450;28;20029;-69
2022/04/19 03:01:39;;;;;;;16.80;13.60;;;;;;;8.93;60.74;101214.25;5029731;28;20034;-72
2022/04/19 03:04:04;;;;;;;16.02;13.40;;;;;;;8.90;61.08;101208.44;5031328;28;20047;-70
2022/04/19 03:06:30;;;;;;;18.27;14.00;;;;;;;8.87;60.54;101212.38;5031977;28;20029;-69
2022/04/19 03:08:55;;;;;;;18.10;13.90;;;;;;;8.80;61.01;101208.84;5030515;28;20029;-70
2022/04/19 03:11:20;;;;;;;15.90;13.02;;;;;;;8.77;60.75;101211.94;5032239;28;20026;-70
2022/04/19 03:13:46;;;;;;;17.60;12.68;;;;;;;8.78;61.17;101213.63;5031969;28;20041;-71
2022/04/19 03:16:13;;;;;;;15.80;11.70;;;;;;;8.69;61.58;101207.56;5032155;28;20032;-71
2022/04/19 03:18:42;;;;;;;14.73;11.82;;;;;;;8.69;61.57;101211.09;5031889;28;20034;-70
2022/04/19 03:21:11;;;;;;;17.23;11.98;;;;;;;8.69;61.44;101213.78;5028166;28;20033;-69
2022/04/19 03:29:06;;;;;;;19.58;11.07;;;;;;;8.48;62.29;101212.09;5031711;28;20076;-70
2022/04/19 03:31:32;;;;;;;14.48;11.40;;;;;;;8.45;62.65;101217.03;5031845;28;20445;-69
2022/04/19 03:33:57;;;;;;;15.70;11.50;;;;;;;8.44;62.32;101213.53;5031792;28;20080;-69
2022/04/19 03:36:23;;;;;;;14.05;10.85;;;;;;;8.41;62.98;101223.81;5034434;28;20029;-68
2022/04/19 03:38:48;;;;;;;16.40;11.80;;;;;;;8.40;63.14;101222.19;5035380;28;20072;-71
2022/04/19 03:41:14;;;;;;;14.98;11.52;;;;;;;8.31;62.34;101214.25;5035829;28;20041;-70
2022/04/19 03:43:41;;;;;;;15.98;11.70;;;;;;;8.33;62.80;101212.22;5035567;28;20376;-70
2022/04/19 03:46:06;;;;;;;16.33;12.27;;;;;;;8.27;63.64;101209.47;5035009;28;20034;-71
2022/04/19 03:48:32;;;;;;;15.57;11.27;;;;;;;8.22;64.05;101206.56;5017687;28;20480;-71
2022/04/19 03:50:57;;;;;;;16.70;10.90;;;;;;;8.27;63.98;101215.72;5035291;28;20032;-70
2022/04/19 03:53:23;;;;;;;16.85;11.80;;;;;;;8.26;64.28;101208.63;5017572;28;20026;-69
2022/04/19 03:55:48;;;;;;;18.75;11.32;;;;;;;8.23;64.85;101210.88;5028359;28;20034;-70
2022/04/19 03:58:13;;;;;;;15.23;11.00;;;;;;;8.26;64.44;101208.63;5015463;28;20505;-70
2022/04/19 04:00:38;;;;;;;13.43;11.23;;;;;;;8.15;64.92;101211.91;5013300;28;20030;-70
2022/04/19 04:03:06;;;;;;;15.65;10.52;;;;;;;8.18;64.37;101208.78;5014927;28;20034;-69
2022/04/19 04:05:31;;;;;;;15.48;10.38;;;;;;;8.14;65.49;101218.34;5015427;28;20150;-70
2022/04/19 04:07:57;;;;;;;15.23;10.52;;;;;;;8.15;65.50;101217.28;5015195;28;20071;-72
2022/04/19 04:10:23;;;;;;;18.55;10.65;;;;;;;8.08;65.63;101217.25;5019963;28;20053;-69
2022/04/19 04:12:48;;;;;;;17.00;10.85;;;;;;;7.99;66.20;101211.19;5034830;28;20040;-71
2022/04/19 04:15:13;;;;;;;13.18;10.80;;;;;;;8.09;65.51;101215.38;5035035;28;20029;-68
2022/04/19 04:17:39;;;;;;;13.85;10.88;;;;;;;8.06;66.04;101213.94;5034873;28;20026;-69
2022/04/19 04:20:04;;;;;;;15.38;10.90;;;;;;;8.06;65.37;101213.94;5034705;28;20036;-69
2022/04/19 04:22:30;;;;;;;15.23;11.77;;;;;;;8.08;66.16;101213.75;5034485;28;20056;-69
2022/04/19 04:24:55;;;;;;;15.05;11.43;;;;;;;8.11;66.07;101219.56;5030947;28;20088;-68
2022/04/19 04:27:21;;;;;;;13.55;11.40;;;;;;;8.07;65.63;101220.97;5015047;28;20065;-70
2022/04/19 04:29:46;;;;;;;15.00;11.45;;;;;;;8.10;65.74;101222.47;5014758;28;20080;-71
2022/04/19 04:32:11;;;;;;;17.58;11.55;;;;;;;8.03;66.30;101219.75;5014842;28;20034;-71
2022/04/19 04:34:37;;;;;;;15.73;11.68;;;;;;;8.02;65.13;101223.44;5014895;28;20058;-68
2022/04/19 04:37:02;;;;;;;16.75;11.63;;;;;;;7.97;65.48;101215.13;5014715;28;20522;-71
2022/04/19 04:39:27;;;;;;;19.73;11.77;;;;;;;7.97;65.52;101218.66;5033619;28;20059;-70
2022/04/19 04:41:53;;;;;;;15.35;11.65;;;;;;;7.88;66.40;101222.56;5034292;28;20037;-70
2022/04/19 04:44:18;;;;;;;24.15;12.18;;;;;;;7.93;65.37;101225.47;5034035;28;20395;-68
2022/04/19 04:49:37;;;;;;;16.40;12.63;;;;;;;8.03;65.98;101224.28;5034469;28;20043;-70
2022/04/19 04:52:08;;;;;;;16.63;12.02;;;;;;;8.11;64.80;101224.94;5034112;28;20116;-70
2022/04/19 04:54:35;;;;;;;17.50;12.75;;;;;;;8.19;64.49;101229.34;5016352;28;20029;-71
2022/04/19 04:57:02;;;;;;;16.92;12.82;;;;;;;8.19;64.04;101226.66;5031282;28;20087;-69
2022/04/19 04:59:29;;;;;;;17.67;13.02;;;;;;;8.23;63.24;101218.97;5014423;28;20037;-71
2022/04/19 05:01:54;;;;;;;18.67;12.40;;;;;;;8.33;63.44;101235.63;5011820;28;20481;-71
2022/04/19 05:04:19;;;;;;;18.23;13.13;;;;;;;8.33;62.90;101224.84;5014254;28;20038;-71
2022/04/19 05:06:45;;;;;;;20.52;12.75;;;;;;;8.36;62.88;101231.69;5014269;28;20030;-69
2022/04/19 05:09:10;;;;;;;21.80;13.07;;;;;;;8.41;62.68;101226.53;5009770;28;20061;-71
2022/04/19 05:11:35;;;;;;;18.55;12.80;;;;;;;8.47;60.68;101226.59;4995427;28;20035;-71
2022/04/19 05:14:01;;;;;;;19.25;13.15;;;;;;;8.52;60.77;101229.50;5013953;28;20096;-71
2022/04/19 05:16:26;;;;;;;19.58;12.88;;;;;;;8.57;60.61;101231.59;5013770;28;20040;-70
2022/04/19 05:18:52;;;;;;;18.27;12.65;;;;;;;8.62;60.39;101239.09;4996171;28;20061;-71
2022/04/19 05:21:17;;;;;;;25.83;13.40;;;;;;;8.63;60.50;101240.75;5013697;28;20096;-69
2022/04/19 05:23:42;;;;;;;20.60;12.68;;;;;;;8.70;60.44;101238.91;5012666;28;20076;-70
2022/04/19 05:26:08;;;;;;;17.98;12.27;;;;;;;8.75;59.97;101238.31;5012503;28;20034;-71
2022/04/19 05:28:33;;;;;;;21.63;13.15;;;;;;;8.78;60.49;101240.59;5013835;28;20026;-71
2022/04/19 05:30:58;;;;;;;18.25;12.68;;;;;;;8.83;59.20;101235.41;4991345;28;20052;-71
2022/04/19 05:33:24;;;;;;;18.60;13.13;;;;;;;8.83;60.12;101243.50;4994103;28;20492;-71
2022/04/19 05:35:49;;;;;;;19.33;13.50;;;;;;;8.85;58.84;101239.56;4976605;28;20026;-71
2022/04/19 05:38:14;;;;;;;19.45;13.25;;;;;;;8.83;59.77;101243.50;4976645;28;20402;-71
2022/04/19 05:40:40;;;;;;;20.58;14.20;;;;;;;8.84;59.87;101237.09;4993894;28;20034;-70
2022/04/19 05:43:05;;;;;;;22.30;14.07;;;;;;;8.85;59.52;101241.44;4993813;28;20026;-70
2022/04/19 05:45:31;;;;;;;19.75;13.70;;;;;;;8.88;58.85;101235.66;4996397;28;20049;-71
2022/04/19 05:47:56;;;;;;;21.75;13.77;;;;;;;8.90;59.24;101240.84;5013360;28;20034;-71
2022/04/19 05:50:22;;;;;;;19.00;13.43;;;;;;;8.98;59.02;101240.63;5013556;28;20081;-70
2022/04/19 05:52:47;;;;;;;21.20;13.25;;;;;;;9.03;58.06;101241.69;5013518;28;20065;-69
2022/04/19 05:55:12;;;;;;;19.85;13.40;;;;;;;9.02;57.83;101240.03;5013476;28;20025;-74
2022/04/19 05:57:37;;;;;;;22.33;14.05;;;;;;;9.12;58.25;101252.28;5013133;28;20034;-70
2022/04/19 06:00:04;;;;;;;19.67;13.80;;;;;;;9.16;58.28;101251.69;5011599;28;20033;-72
2022/04/19 06:05:13;;;;;;;19.60;13.68;;;;;;;9.19;58.36;101250.44;4996153;28;20049;-71
2022/04/19 06:07:43;;;;;;;22.77;13.70;;;;;;;9.27;57.75;101252.09;5013105;28;20038;-73
2022/04/19 06:10:09;;;;;;;21.27;13.68;;;;;;;9.36;57.89;101254.41;5024209;28;20610;-70
2022/04/19 06:12:34;;;;;;;20.27;13.82;;;;;;;9.43;57.71;101256.28;5032904;28;20108;-69
2022/04/19 06:14:59;;;;;;;18.65;13.23;;;;;;;9.51;57.32;101253.34;5032841;28;20190;-75
2022/04/19 06:17:29;;;;;;;21.10;14.13;;;;;;;9.57;57.71;101258.78;5030050;28;20029;-70
2022/04/19 06:19:55;;;;;;;19.75;13.70;;;;;;;9.68;57.42;101260.00;5032963;28;20215;-70
2022/04/19 06:22:21;;;;;;;19.75;13.45;;;;;;;9.72;56.71;101255.84;5025765;28;20034;-68
2022/04/19 06:24:46;;;;;;;18.38;13.07;;;;;;;9.79;56.82;101263.94;5016366;28;20040;-71
2022/04/19 06:27:11;;;;;;;18.38;12.95;;;;;;;9.81;56.35;101267.25;5013069;28;20025;-70
2022/04/19 06:29:37;;;;;;;21.38;12.73;;;;;;;9.88;56.13;101259.16;5012586;28;20444;-68
2022/04/19 06:32:02;;;;;;;17.45;13.18;;;;;;;9.99;55.05;101263.91;5012656;28;20022;-71
2022/04/19 06:34:28;;;;;;;19.88;12.60;;;;;;;10.08;54.86;101265.38;5012756;28;20079;-70
2022/04/19 06:36:53;;;;;;;18.63;12.80;;;;;;;10.14;55.57;101262.84;5012573;28;20025;-68
2022/04/19 06:39:18;;;;;;;16.80;12.13;;;;;;;10.23;54.61;101262.41;5012776;28;20450;-70
2022/04/19 06:41:43;;;;;;;20.52;12.90;;;;;;;10.29;55.77;101264.25;5012850;28;20066;-69
2022/04/19 06:44:09;;;;;;;19.92;12.95;;;;;;;10.39;55.71;101261.13;5012861;28;20037;-71
2022/04/19 06:46:36;;;;;;;19.02;12.80;;;;;;;10.49;54.49;101260.66;5012799;28;20030;-68
2022/04/19 06:49:01;;;;;;;18.35;12.45;;;;;;;10.60;54.26;101260.00;5012566;28;20037;-68
2022/04/19 06:51:26;;;;;;;18.98;11.60;;;;;;;10.68;53.99;101267.06;5013625;28;20536;-70
2022/04/19 06:53:52;;;;;;;19.40;12.50;;;;;;;10.74;53.73;101263.47;5012341;28;20033;-68
2022/04/19 06:56:18;;;;;;;18.88;12.90;;;;;;;10.82;53.73;101268.66;4994906;28;20034;-70
2022/04/19 06:58:44;;;;;;;21.05;12.52;;;;;;;10.89;52.54;101265.91;4994862;28;20026;-69
2022/04/19 07:01:10;;;;;;;20.00;12.57;;;;;;;10.97;52.86;101270.22;4992671;28;20108;-69
2022/04/19 07:03:36;;;;;;;19.00;12.73;;;;;;;11.04;52.94;101270.22;5012365;28;20048;-71
2022/04/19 07:06:01;;;;;;;16.83;12.10;;;;;;;11.10;52.56;101270.16;5016714;28;20052;-71
2022/04/19 07:08:26;;;;;;;17.48;12.07;;;;;;;11.17;53.58;101265.53;5014679;28;20091;-71
2022/04/19 07:10:52;;;;;;;19.92;12.95;;;;;;;11.28;52.61;101276.72;5017177;28;20057;-72
2022/04/19 07:13:17;;;;;;;17.05;12.27;;;;;;;11.35;52.32;101270.19;5018214;28;20052;-69
2022/04/19 07:15:43;;;;;;;17.88;12.23;;;;;;;11.45;52.17;101271.59;5018607;28;20030;-72
2022/04/19 07:18:08;;;;;;;20.63;12.77;;;;;;;11.49;52.55;101270.91;5035925;28;20476;-72
2022/04/19 07:28:45;;;;;;;17.23;11.32;;;;;;;11.81;50.93;101273.56;5035644;28;20507;-72
2022/04/19 07:31:10;;;;;;;18.45;11.55;;;;;;;11.88;50.83;101270.78;5035811;28;20033;-69
2022/04/19 07:33:38;;;;;;;17.63;11.50;;;;;;;11.97;51.03;101277.63;5035704;28;20109;-72
2022/04/19 07:36:04;;;;;;;16.27;10.70;;;;;;;12.03;50.10;101275.88;5035161;28;20033;-72
2022/04/19 07:38:29;;;;;;;19.35;11.07;;;;;;;12.16;49.78;101285.78;5015883;28;20098;-71
2022/04/19 07:40:54;;;;;;;16.58;10.63;;;;;;;12.24;50.02;101285.47;5015922;28;20062;-68
2022/04/19 07:43:19;;;;;;;17.45;11.18;;;;;;;12.25;49.31;101281.72;5015610;28;20037;-72
2022/04/19 07:45:45;;;;;;;15.52;10.52;;;;;;;12.35;48.95;101286.59;4998244;28;20030;-71
2022/04/19 07:48:10;;;;;;;16.58;10.85;;;;;;;12.40;48.99;101286.78;5015510;28;20127;-71
2022/04/19 07:50:35;;;;;;;17.00;11.00;;;;;;;12.47;49.45;101286.69;4997738;28;20045;-72
2022/04/19 07:53:01;;;;;;;18.38;10.50;;;;;;;12.54;47.77;101280.09;5015574;28;20453;-70
2022/04/19 07:55:27;;;;;;;16.05;10.90;;;;;;;12.64;48.91;101284.19;5015426;28;20044;-72
2022/04/19 07:57:53;;;;;;;15.35;10.00;;;;;;;12.69;47.18;101285.16;5015454;28;20029;-72
2022/04/19 08:00:19;;;;;;;14.57;10.10;;;;;;;12.78;47.22;101288.38;5014476;28;20374;-74
2022/04/19 08:02:45;;;;;;;14.93;9.93;;;;;;;12.83;47.09;101280.41;5013872;28;20030;-73
2022/04/19 08:05:10;;;;;;;16.35;9.77;;;;;;;12.88;47.02;101288.69;4997574;28;20505;-71
2022/04/19 08:07:35;;;;;;;14.05;9.85;;;;;;;12.91;47.12;101288.22;5009790;28;20037;-68
2022/04/19 08:10:01;;;;;;;20.70;10.45;;;;;;;12.99;47.29;101286.25;5034747;28;20041;-69
2022/04/19 08:12:27;;;;;;;17.90;11.05;;;;;;;13.03;47.01;101276.53;5029430;28;20113;-70
2022/04/19 08:14:53;;;;;;;17.38;10.68;;;;;;;13.12;47.61;101288.78;5034889;28;20032;-71
2022/04/19 08:17:18;;;;;;;16.95;10.45;;;;;;;13.15;46.77;101282.03;5034309;28;20065;-71
2022/04/19 08:19:43;;;;;;;17.63;10.15;;;;;;;13.21;46.69;101275.66;5034796;28;20053;-69
2022/04/19 08:22:09;;;;;;;14.60;9.40;;;;;;;13.28;47.20;101271.78;5030809;28;20032;-72
2022/04/19 08:24:34;;;;;;;18.13;9.68;;;;;;;13.37;46.04;101268.78;5031226;28;20037;-72
2022/04/19 08:27:00;;;;;;;14.32;8.80;;;;;;;13.45;45.62;101276.56;5034668;28;20021;-69
2022/04/19 08:29:25;;;;;;;15.13;9.82;;;;;;;13.52;46.66;101271.88;5034174;28;20025;-71
2022/04/19 08:31:51;;;;;;;14.40;8.70;;;;;;;13.59;46.35;101269.06;5034394;28;20033;-70
2022/04/19 08:34:16;;;;;;;13.13;9.25;;;;;;;13.61;45.65;101265.00;5033983;28;20444;-72
2022/04/19 08:36:42;;;;;;;17.98;8.50;;;;;;;13.71;44.90;101271.75;5034164;28;20087;-70
2022/04/19 08:39:09;;;;;;;16.23;9.30;;;;;;;13.77;45.71;101268.13;5034048;28;20037;-71
2022/04/19 08:41:36;;;;;;;16.67;10.07;;;;;;;13.83;45.96;101269.91;5034202;28;20492;-71
2022/04/19 08:44:01;;;;;;;14.77;9.10;;;;;;;13.92;45.21;101267.63;5034342;28;20029;-73
2022/04/19 08:46:27;;;;;;;14.00;9.38;;;;;;;14.03;45.46;101263.25;5034202;28;20436;-69
2022/04/19 08:48:59;;;;;;;16.98;9.00;;;;;;;14.13;45.13;101267.03;5033968;28;20441;-68
2022/04/19 08:51:27;;;;;;;14.80;8.85;;;;;;;14.14;44.42;101267.84;5033966;28;20037;-69
2022/04/19 08:59:28;;;;;;;11.52;7.65;;;;;;;14.42;44.07;101266.25;5033759;28;20072;-71
2022/04/19 09:01:53;;;;;;;11.65;7.32;;;;;;;14.49;43.33;101275.97;5031697;28;20113;-72
2022/04/19 09:04:21;;;;;;;7.22;5.57;;;;;;;14.62;42.32;101274.88;5033832;28;20109;-69
2022/04/19 09:06:57;;;;;;;10.32;5.60;;;;;;;14.68;42.45;101268.47;5037200;28;20376;-69
2022/04/19 09:09:34;;;;;;;10.25;5.53;;;;;;;14.71;41.59;101267.16;5030375;28;20481;-72
2022/04/19 09:12:11;;;;;;;9.95;5.85;;;;;;;14.79;42.07;101263.22;5033967;28;20029;-69
2022/04/19 09:14:54;;;;;;;12.52;6.15;;;;;;;14.80;42.23;101256.72;5033951;28;20453;-70
2022/04/19 09:17:30;;;;;;;13.48;6.20;;;;;;;14.90;42.80;101259.63;5033763;28;20032;-71
2022/04/19 09:20:11;;;;;;;12.45;6.38;;;;;;;14.87;41.99;101252.75;5034001;28;20028;-72
2022/04/19 09:22:37;;;;;;;8.85;5.82;;;;;;;14.88;41.51;101257.13;5033226;28;20029;-69
2022/04/19 09:25:25;;;;;;;10.20;6.13;;;;;;;14.96;42.07;101258.66;5033715;28;20037;-72
2022/04/19 09:27:54;;;;;;;10.68;6.63;;;;;;;14.92;41.15;101249.31;5033585;28;20465;-72
2022/04/19 09:30:26;;;;;;;10.05;6.35;;;;;;;15.01;41.67;101255.19;5033335;28;20104;-71
2022/04/19 09:33:11;;;;;;;10.45;5.78;;;;;;;15.06;42.03;101245.19;5033138;28;20037;-70
2022/04/19 09:35:47;;;;;;;8.93;5.30;;;;;;;15.14;41.06;101251.31;5033266;28;20397;-72
2022/04/19 09:38:13;;;;;;;9.48;6.00;;;;;;;15.22;40.40;101256.38;5032460;28;20116;-69
2022/04/19 09:40:46;;;;;;;9.80;5.60;;;;;;;15.29;40.56;101246.13;5013362;28;20046;-70
2022/04/19 09:43:16;;;;;;;9.38;5.75;;;;;;;15.42;41.21;101240.34;5024692;28;20037;-72
2022/04/19 09:45:45;;;;;;;12.88;6.03;;;;;;;15.53;41.08;101245.97;5033373;28;20498;-70
2022/04/19 09:48:16;;;;;;;10.05;5.47;;;;;;;15.65;40.54;101243.97;5037846;28;20607;-73
2022/04/19 09:50:48;;;;;;;9.63;5.60;;;;;;;15.63;39.78;101243.41;5033222;28;20034;-71
2022/04/19 09:53:17;;;;;;;7.88;5.05;;;;;;;15.67;38.93;101241.00;5032895;28;20453;-71
2022/04/19 09:55:47;;;;;;;7.95;5.45;;;;;;;15.70;39.09;101241.34;5033064;28;20022;-71
2022/04/19 09:58:14;;;;;;;8.63;5.10;;;;;;;15.77;38.83;101238.44;5032857;28;20060;-70
2022/04/19 10:00:41;;;;;;;11.73;5.38;;;;;;;15.87;39.10;101245.97;5030922;28;20064;-72
2022/04/19 10:08:37;;;;;;;14.93;5.68;;;;;;;15.98;38.18;101234.13;5033051;28;20041;-71
2022/04/19 10:11:03;;;;;;;12.02;5.20;;;;;;;15.95;38.67;101226.44;5032321;28;20053;-69
2022/04/19 10:13:29;;;;;;;13.10;5.93;;;;;;;15.98;38.43;101230.56;5032773;28;20029;-69
2022/04/19 10:15:55;;;;;;;10.60;5.65;;;;;;;15.97;38.61;101229.72;5032834;28;20026;-72
2022/04/19 10:18:20;;;;;;;9.32;5.38;;;;;;;16.06;38.76;101222.78;5032557;28;20029;-71
2022/04/19 10:20:53;;;;;;;9.20;5.15;;;;;;;16.15;38.96;101227.78;5032421;28;20040;-72
2022/04/19 10:23:19;;;;;;;8.90;5.28;;;;;;;16.26;39.14;101224.09;5032236;28;20037;-71
2022/04/19 10:25:46;;;;;;;11.55;4.93;;;;;;;16.28;38.72;101230.16;5032745;28;20034;-71
2022/04/19 10:28:26;;;;;;;7.93;4.82;;;;;;;16.33;37.09;101238.38;5014614;28;20040;-69
2022/04/19 10:30:53;;;;;;;8.45;5.45;;;;;;;16.34;37.68;101240.06;5032677;28;20044;-71
2022/04/19 10:33:48;;;;;;;8.18;5.15;;;;;;;16.35;39.01;101235.41;5032352;28;20116;-71
2022/04/19 10:36:18;;;;;;;11.07;5.60;;;;;;;16.43;38.58;101230.31;5032439;28;20029;-71
2022/04/19 10:38:46;;;;;;;10.95;6.00;;;;;;;16.53;38.85;101237.00;5032128;28;20037;-70
2022/04/19 10:41:31;;;;;;;9.95;6.00;;;;;;;16.60;37.89;101229.41;5031786;28;20037;-68
2022/04/19 10:44:36;;;;;;;8.80;5.60;;;;;;;16.77;38.86;101227.44;5020617;28;20022;-71
2022/04/19 10:47:12;;;;;;;11.75;5.78;;;;;;;16.82;38.45;101224.75;5032545;28;20439;-68
2022/04/19 10:50:05;;;;;;;10.05;6.25;;;;;;;16.84;37.85;101221.75;5051846;28;20029;-71
2022/04/19 10:52:36;;;;;;;9.07;5.80;;;;;;;16.88;37.65;101222.94;5051882;28;20098;-69
2022/04/19 10:55:17;;;;;;;14.95;6.43;;;;;;;16.89;38.28;101221.00;5034346;28;20040;-69
2022/04/19 11:00:45;;;;;;;8.00;5.25;;;;;;;16.89;38.16;101208.16;5036175;28;20611;-69
2022/04/19 11:03:10;;;;;;;7.45;4.80;;;;;;;17.05;36.48;101209.13;5032971;28;20101;-70
2022/04/19 11:05:41;;;;;;;10.40;5.13;;;;;;;17.11;36.31;101197.16;5014672;28;20484;-69
2022/04/19 11:08:24;;;;;;;9.85;4.70;;;;;;;17.15;37.33;101192.81;5031979;28;20623;-72
2022/04/19 11:11:21;;;;;;;11.40;5.72;;;;;;;17.26;37.87;101199.19;5032369;28;20057;-70
2022/04/19 11:14:24;;;;;;;10.02;5.57;;;;;;;17.38;37.78;101198.19;5006488;28;20030;-72
2022/04/19 11:16:52;;;;;;;10.13;5.05;;;;;;;17.45;36.39;101204.25;5012396;28;20037;-70
2022/04/19 11:19:23;;;;;;;9.90;5.72;;;;;;;17.49;36.71;101198.00;5012215;28;20041;-71
2022/04/19 11:21:53;;;;;;;11.50;5.40;;;;;;;17.57;37.14;101198.59;5012443;28;20038;-72
2022/04/19 11:24:56;;;;;;;11.30;5.70;;;;;;;17.63;36.94;101200.28;5012117;28;20036;-71
2022/04/19 11:27:22;;;;;;;9.52;5.85;;;;;;;17.63;36.10;101197.53;5012204;28;20038;-72
2022/04/19 11:29:48;;;;;;;8.73;5.68;;;;;;;17.66;35.52;101189.63;5012401;28;20034;-71
2022/04/19 11:32:21;;;;;;;12.65;6.07;;;;;;;17.68;36.88;101181.97;5012126;28;20041;-72
2022/04/19 11:35:06;;;;;;;12.48;6.20;;;;;;;17.80;36.56;101187.25;5012324;28;20165;-71
2022/04/19 11:37:32;;;;;;;8.90;5.65;;;;;;;17.89;35.48;101185.69;5011191;28;20052;-72
2022/04/19 11:48:30;;;;;;;10.68;5.70;;;;;;;18.10;35.66;101183.06;5031609;28;19920;-70
2022/04/19 11:51:12;;;;;;;12.23;5.90;;;;;;;18.15;35.67;101180.31;5031611;28;20037;-69
2022/04/19 11:53:37;;;;;;;8.98;5.80;;;;;;;18.22;35.58;101193.75;5031745;28;20083;-70
2022/04/19 11:56:04;;;;;;;9.52;5.53;;;;;;;18.20;34.38;101190.47;5025674;28;20026;-70
2022/04/19 11:58:30;;;;;;;11.05;5.25;;;;;;;18.25;34.78;101190.47;5015365;28;20021;-73
2022/04/19 12:01:03;;;;;;;10.75;5.22;;;;;;;18.39;34.29;101186.16;5013248;28;20021;-72
2022/04/19 12:03:32;;;;;;;9.77;5.25;;;;;;;18.39;34.17;101190.81;4998266;28;20042;-72